sensor_id;sensor_type;location;lat;lon;timestamp;P1;durP1;ratioP1;P2;durP2;ratioP2
26082;SDS011;13848;49.018;12.078;2023-03-31T00:00:09;9.68;;;4.15;;
26082;SDS011;13848;49.018;12.078;2023-03-31T00:02:37;5.93;;;3.58;;
26082;SDS011;13848;49.018;12.078;2023-03-31T00:05:04;8.07;;;3.30;;
26082;SDS011;13848;49.018;12.078;2023-03-31T00:07:30;6.35;;;3.25;;
26082;SDS011;13848;49.018;12.078;2023-03-31T00:09:56;9.18;;;3.50;;
26082;SDS011;13848;49.018;12.078;2023-03-31T00:12:22;7.60;;;3.75;;
26082;SDS011;13848;49.018;12.078;2023-03-31T00:14:48;4.28;;;3.00;;
26082;SDS011;13848;49.018;12.078;2023-03-31T00:17:14;6.72;;;3.00;;
26082;SDS011;13848;49.018;12.078;2023-03-31T00:19:41;11.43;;;3.33;;
26082;SDS011;13848;49.018;12.078;2023-03-31T00:22:07;8.73;;;3.38;;
26082;SDS011;13848;49.018;12.078;2023-03-31T00:24:33;6.80;;;2.72;;
26082;SDS011;13848;49.018;12.078;2023-03-31T00:27:00;4.18;;;3.15;;
26082;SDS011;13848;49.018;12.078;2023-03-31T00:29:27;6.43;;;3.30;;
26082;SDS011;13848;49.018;12.078;2023-03-31T00:31:54;7.15;;;3.33;;
26082;SDS011;13848;49.018;12.078;2023-03-31T00:34:20;10.05;;;3.83;;
26082;SDS011;13848;49.018;12.078;2023-03-31T00:36:47;5.13;;;3.45;;
26082;SDS011;13848;49.018;12.078;2023-03-31T00:39:14;7.35;;;3.17;;
26082;SDS011;13848;49.018;12.078;2023-03-31T00:41:41;7.93;;;3.30;;
26082;SDS011;13848;49.018;12.078;2023-03-31T00:44:09;6.70;;;3.15;;
26082;SDS011;13848;49.018;12.078;2023-03-31T00:46:38;11.00;;;3.80;;
26082;SDS011;13848;49.018;12.078;2023-03-31T00:49:11;6.43;;;3.00;;
26082;SDS011;13848;49.018;12.078;2023-03-31T00:51:40;5.78;;;2.70;;
26082;SDS011;13848;49.018;12.078;2023-03-31T00:54:09;8.10;;;3.67;;
26082;SDS011;13848;49.018;12.078;2023-03-31T00:56:36;6.07;;;3.55;;
26082;SDS011;13848;49.018;12.078;2023-03-31T00:59:06;8.93;;;3.38;;
26082;SDS011;13848;49.018;12.078;2023-03-31T01:01:35;8.80;;;3.50;;
26082;SDS011;13848;49.018;12.078;2023-03-31T01:04:05;4.45;;;3.30;;
26082;SDS011;13848;49.018;12.078;2023-03-31T01:06:32;6.97;;;3.30;;
26082;SDS011;13848;49.018;12.078;2023-03-31T01:08:58;5.93;;;3.08;;
26082;SDS011;13848;49.018;12.078;2023-03-31T01:11:27;7.55;;;3.00;;
26082;SDS011;13848;49.018;12.078;2023-03-31T01:13:55;4.35;;;3.20;;
26082;SDS011;13848;49.018;12.078;2023-03-31T01:16:21;3.90;;;3.10;;
26082;SDS011;13848;49.018;12.078;2023-03-31T01:18:47;7.18;;;3.55;;
26082;SDS011;13848;49.018;12.078;2023-03-31T01:24:32;7.68;;;3.40;;
26082;SDS011;13848;49.018;12.078;2023-03-31T01:27:29;7.18;;;3.13;;
26082;SDS011;13848;49.018;12.078;2023-03-31T01:33:46;4.68;;;3.03;;
26082;SDS011;13848;49.018;12.078;2023-03-31T01:36:49;8.25;;;2.92;;
26082;SDS011;13848;49.018;12.078;2023-03-31T01:39:45;6.22;;;3.25;;
26082;SDS011;13848;49.018;12.078;2023-03-31T01:42:26;8.38;;;3.83;;
26082;SDS011;13848;49.018;12.078;2023-03-31T01:45:00;7.43;;;3.50;;
26082;SDS011;13848;49.018;12.078;2023-03-31T01:47:34;6.25;;;3.88;;
26082;SDS011;13848;49.018;12.078;2023-03-31T01:50:03;9.57;;;3.58;;
26082;SDS011;13848;49.018;12.078;2023-03-31T01:52:34;8.63;;;3.83;;
26082;SDS011;13848;49.018;12.078;2023-03-31T01:55:06;6.30;;;3.92;;
26082;SDS011;13848;49.018;12.078;2023-03-31T01:57:37;9.50;;;3.65;;
26082;SDS011;13848;49.018;12.078;2023-03-31T02:00:05;9.15;;;3.88;;
26082;SDS011;13848;49.018;12.078;2023-03-31T02:02:36;7.13;;;3.75;;
26082;SDS011;13848;49.018;12.078;2023-03-31T02:05:07;6.43;;;3.63;;
26082;SDS011;13848;49.018;12.078;2023-03-31T02:07:36;5.60;;;3.53;;
26082;SDS011;13848;49.018;12.078;2023-03-31T02:10:09;8.20;;;3.83;;
26082;SDS011;13848;49.018;12.078;2023-03-31T02:12:37;6.53;;;4.07;;
26082;SDS011;13848;49.018;12.078;2023-03-31T02:15:07;6.60;;;3.70;;
26082;SDS011;13848;49.018;12.078;2023-03-31T02:17:35;6.53;;;3.90;;
26082;SDS011;13848;49.018;12.078;2023-03-31T02:20:05;6.13;;;3.53;;
26082;SDS011;13848;49.018;12.078;2023-03-31T02:22:35;11.77;;;4.28;;
26082;SDS011;13848;49.018;12.078;2023-03-31T02:25:04;7.28;;;4.10;;
26082;SDS011;13848;49.018;12.078;2023-03-31T02:27:36;7.32;;;4.38;;
26082;SDS011;13848;49.018;12.078;2023-03-31T02:30:04;6.68;;;4.20;;
26082;SDS011;13848;49.018;12.078;2023-03-31T02:32:33;8.07;;;4.30;;
26082;SDS011;13848;49.018;12.078;2023-03-31T02:35:02;6.88;;;4.45;;
26082;SDS011;13848;49.018;12.078;2023-03-31T02:37:29;9.43;;;4.60;;
26082;SDS011;13848;49.018;12.078;2023-03-31T02:39:56;6.65;;;4.10;;
26082;SDS011;13848;49.018;12.078;2023-03-31T02:42:24;6.00;;;4.20;;
26082;SDS011;13848;49.018;12.078;2023-03-31T02:44:52;9.65;;;4.20;;
26082;SDS011;13848;49.018;12.078;2023-03-31T02:47:18;7.72;;;4.22;;
26082;SDS011;13848;49.018;12.078;2023-03-31T02:49:47;10.13;;;4.72;;
26082;SDS011;13848;49.018;12.078;2023-03-31T02:55:21;7.13;;;4.75;;
26082;SDS011;13848;49.018;12.078;2023-03-31T02:58:03;7.13;;;4.50;;
26082;SDS011;13848;49.018;12.078;2023-03-31T03:00:45;8.85;;;4.75;;
26082;SDS011;13848;49.018;12.078;2023-03-31T03:03:26;8.82;;;4.82;;
26082;SDS011;13848;49.018;12.078;2023-03-31T03:06:03;11.45;;;4.90;;
26082;SDS011;13848;49.018;12.078;2023-03-31T03:08:38;8.95;;;5.10;;
26082;SDS011;13848;49.018;12.078;2023-03-31T03:11:18;12.25;;;4.82;;
26082;SDS011;13848;49.018;12.078;2023-03-31T03:13:49;9.55;;;4.75;;
26082;SDS011;13848;49.018;12.078;2023-03-31T03:16:20;8.55;;;5.13;;
26082;SDS011;13848;49.018;12.078;2023-03-31T03:18:56;6.80;;;4.60;;
26082;SDS011;13848;49.018;12.078;2023-03-31T03:21:22;8.00;;;4.80;;
26082;SDS011;13848;49.018;12.078;2023-03-31T03:23:48;8.15;;;4.93;;
26082;SDS011;13848;49.018;12.078;2023-03-31T03:26:14;6.72;;;4.80;;
26082;SDS011;13848;49.018;12.078;2023-03-31T03:28:40;10.15;;;5.07;;
26082;SDS011;13848;49.018;12.078;2023-03-31T03:31:06;7.85;;;4.95;;
26082;SDS011;13848;49.018;12.078;2023-03-31T03:33:33;9.02;;;5.05;;
26082;SDS011;13848;49.018;12.078;2023-03-31T03:35:59;7.55;;;5.10;;
26082;SDS011;13848;49.018;12.078;2023-03-31T03:38:25;9.85;;;5.43;;
26082;SDS011;13848;49.018;12.078;2023-03-31T03:40:51;10.68;;;5.90;;
26082;SDS011;13848;49.018;12.078;2023-03-31T03:43:17;8.60;;;5.30;;
26082;SDS011;13848;49.018;12.078;2023-03-31T03:45:46;10.10;;;5.88;;
26082;SDS011;13848;49.018;12.078;2023-03-31T03:48:12;10.07;;;5.85;;
26082;SDS011;13848;49.018;12.078;2023-03-31T03:50:39;9.95;;;5.88;;
26082;SDS011;13848;49.018;12.078;2023-03-31T03:53:05;10.20;;;5.93;;
26082;SDS011;13848;49.018;12.078;2023-03-31T03:55:31;8.60;;;5.93;;
26082;SDS011;13848;49.018;12.078;2023-03-31T03:57:57;9.68;;;5.60;;
26082;SDS011;13848;49.018;12.078;2023-03-31T04:00:23;11.65;;;6.70;;
26082;SDS011;13848;49.018;12.078;2023-03-31T04:02:49;11.23;;;6.40;;
26082;SDS011;13848;49.018;12.078;2023-03-31T04:05:16;10.48;;;6.00;;
26082;SDS011;13848;49.018;12.078;2023-03-31T04:07:43;10.40;;;6.30;;
26082;SDS011;13848;49.018;12.078;2023-03-31T04:10:09;9.07;;;5.82;;
26082;SDS011;13848;49.018;12.078;2023-03-31T04:12:35;8.82;;;5.53;;
26082;SDS011;13848;49.018;12.078;2023-03-31T04:15:01;8.77;;;6.03;;
26082;SDS011;13848;49.018;12.078;2023-03-31T04:17:27;9.73;;;5.60;;
26082;SDS011;13848;49.018;12.078;2023-03-31T04:19:53;9.57;;;6.28;;
26082;SDS011;13848;49.018;12.078;2023-03-31T04:22:19;10.43;;;5.93;;
26082;SDS011;13848;49.018;12.078;2023-03-31T04:24:46;10.88;;;5.82;;
26082;SDS011;13848;49.018;12.078;2023-03-31T04:27:12;10.07;;;6.13;;
26082;SDS011;13848;49.018;12.078;2023-03-31T04:29:38;8.05;;;5.35;;
26082;SDS011;13848;49.018;12.078;2023-03-31T04:32:04;8.13;;;5.53;;
26082;SDS011;13848;49.018;12.078;2023-03-31T04:34:31;8.48;;;5.25;;
26082;SDS011;13848;49.018;12.078;2023-03-31T04:36:56;14.20;;;5.18;;
26082;SDS011;13848;49.018;12.078;2023-03-31T04:39:22;9.25;;;5.15;;
26082;SDS011;13848;49.018;12.078;2023-03-31T04:41:50;9.27;;;5.93;;
26082;SDS011;13848;49.018;12.078;2023-03-31T04:44:15;7.72;;;5.38;;
26082;SDS011;13848;49.018;12.078;2023-03-31T04:46:41;8.10;;;5.65;;
26082;SDS011;13848;49.018;12.078;2023-03-31T04:49:07;11.95;;;6.20;;
26082;SDS011;13848;49.018;12.078;2023-03-31T04:51:33;8.23;;;5.13;;
26082;SDS011;13848;49.018;12.078;2023-03-31T04:53:59;8.13;;;5.80;;
26082;SDS011;13848;49.018;12.078;2023-03-31T04:56:25;11.60;;;5.95;;
26082;SDS011;13848;49.018;12.078;2023-03-31T04:58:52;7.35;;;5.65;;
26082;SDS011;13848;49.018;12.078;2023-03-31T05:01:18;12.30;;;6.13;;
26082;SDS011;13848;49.018;12.078;2023-03-31T05:03:45;11.38;;;6.07;;
26082;SDS011;13848;49.018;12.078;2023-03-31T05:06:11;9.25;;;6.00;;
26082;SDS011;13848;49.018;12.078;2023-03-31T05:08:37;8.98;;;6.20;;
26082;SDS011;13848;49.018;12.078;2023-03-31T05:11:03;9.18;;;6.10;;
26082;SDS011;13848;49.018;12.078;2023-03-31T05:13:29;12.20;;;6.47;;
26082;SDS011;13848;49.018;12.078;2023-03-31T05:15:56;15.27;;;6.53;;
26082;SDS011;13848;49.018;12.078;2023-03-31T05:18:22;13.50;;;7.10;;
26082;SDS011;13848;49.018;12.078;2023-03-31T05:20:48;10.50;;;6.55;;
26082;SDS011;13848;49.018;12.078;2023-03-31T05:23:14;9.95;;;7.05;;
26082;SDS011;13848;49.018;12.078;2023-03-31T05:25:40;10.68;;;7.18;;
26082;SDS011;13848;49.018;12.078;2023-03-31T05:28:06;10.40;;;7.05;;
26082;SDS011;13848;49.018;12.078;2023-03-31T05:30:32;12.57;;;7.25;;
26082;SDS011;13848;49.018;12.078;2023-03-31T05:32:59;14.85;;;7.85;;
26082;SDS011;13848;49.018;12.078;2023-03-31T05:35:25;13.38;;;7.55;;
26082;SDS011;13848;49.018;12.078;2023-03-31T05:37:51;10.27;;;6.63;;
26082;SDS011;13848;49.018;12.078;2023-03-31T05:40:17;12.38;;;6.85;;
26082;SDS011;13848;49.018;12.078;2023-03-31T05:42:43;10.82;;;6.80;;
26082;SDS011;13848;49.018;12.078;2023-03-31T05:45:09;10.43;;;7.03;;
26082;SDS011;13848;49.018;12.078;2023-03-31T05:47:35;10.25;;;6.95;;
26082;SDS011;13848;49.018;12.078;2023-03-31T05:50:03;15.23;;;7.10;;
26082;SDS011;13848;49.018;12.078;2023-03-31T05:52:29;13.95;;;7.80;;
26082;SDS011;13848;49.018;12.078;2023-03-31T05:54:55;11.98;;;7.47;;
26082;SDS011;13848;49.018;12.078;2023-03-31T05:57:21;18.02;;;8.10;;
26082;SDS011;13848;49.018;12.078;2023-03-31T05:59:47;16.08;;;8.23;;
26082;SDS011;13848;49.018;12.078;2023-03-31T06:02:13;10.13;;;7.00;;
26082;SDS011;13848;49.018;12.078;2023-03-31T06:04:39;12.93;;;8.13;;
26082;SDS011;13848;49.018;12.078;2023-03-31T06:07:06;11.48;;;7.82;;
26082;SDS011;13848;49.018;12.078;2023-03-31T06:09:32;16.48;;;7.75;;
26082;SDS011;13848;49.018;12.078;2023-03-31T06:11:58;13.07;;;7.90;;
26082;SDS011;13848;49.018;12.078;2023-03-31T06:14:24;12.98;;;7.97;;
26082;SDS011;13848;49.018;12.078;2023-03-31T06:16:51;16.48;;;7.82;;
26082;SDS011;13848;49.018;12.078;2023-03-31T06:19:17;13.05;;;7.93;;
26082;SDS011;13848;49.018;12.078;2023-03-31T06:21:44;12.52;;;7.45;;
26082;SDS011;13848;49.018;12.078;2023-03-31T06:24:12;15.85;;;8.07;;
26082;SDS011;13848;49.018;12.078;2023-03-31T06:26:37;14.15;;;7.88;;
26082;SDS011;13848;49.018;12.078;2023-03-31T06:29:04;11.52;;;7.20;;
26082;SDS011;13848;49.018;12.078;2023-03-31T06:31:30;13.80;;;7.22;;
26082;SDS011;13848;49.018;12.078;2023-03-31T06:33:55;14.80;;;7.43;;
26082;SDS011;13848;49.018;12.078;2023-03-31T06:36:22;12.48;;;7.25;;
26082;SDS011;13848;49.018;12.078;2023-03-31T06:38:48;10.95;;;6.65;;
26082;SDS011;13848;49.018;12.078;2023-03-31T06:41:16;10.90;;;7.22;;
26082;SDS011;13848;49.018;12.078;2023-03-31T06:43:43;12.68;;;7.72;;
26082;SDS011;13848;49.018;12.078;2023-03-31T06:46:09;14.13;;;7.13;;
26082;SDS011;13848;49.018;12.078;2023-03-31T06:48:35;10.23;;;6.65;;
26082;SDS011;13848;49.018;12.078;2023-03-31T06:51:02;18.15;;;7.47;;
26082;SDS011;13848;49.018;12.078;2023-03-31T06:53:30;11.73;;;7.00;;
26082;SDS011;13848;49.018;12.078;2023-03-31T06:55:56;10.15;;;6.93;;
26082;SDS011;13848;49.018;12.078;2023-03-31T06:58:23;11.15;;;6.95;;
26082;SDS011;13848;49.018;12.078;2023-03-31T07:00:49;11.07;;;7.07;;
26082;SDS011;13848;49.018;12.078;2023-03-31T07:03:15;12.20;;;7.40;;
26082;SDS011;13848;49.018;12.078;2023-03-31T07:05:41;10.38;;;7.18;;
26082;SDS011;13848;49.018;12.078;2023-03-31T07:08:12;12.00;;;7.10;;
26082;SDS011;13848;49.018;12.078;2023-03-31T07:10:38;16.55;;;7.30;;
26082;SDS011;13848;49.018;12.078;2023-03-31T07:13:03;11.88;;;7.32;;
26082;SDS011;13848;49.018;12.078;2023-03-31T07:15:31;11.43;;;6.50;;
26082;SDS011;13848;49.018;12.078;2023-03-31T07:17:57;14.60;;;6.72;;
26082;SDS011;13848;49.018;12.078;2023-03-31T07:20:23;11.48;;;6.75;;
26082;SDS011;13848;49.018;12.078;2023-03-31T07:22:49;10.25;;;6.25;;
26082;SDS011;13848;49.018;12.078;2023-03-31T07:25:16;10.13;;;6.70;;
26082;SDS011;13848;49.018;12.078;2023-03-31T07:27:42;11.75;;;6.68;;
26082;SDS011;13848;49.018;12.078;2023-03-31T07:30:09;11.10;;;7.03;;
26082;SDS011;13848;49.018;12.078;2023-03-31T07:32:40;11.85;;;6.97;;
26082;SDS011;13848;49.018;12.078;2023-03-31T07:35:06;13.57;;;7.18;;
26082;SDS011;13848;49.018;12.078;2023-03-31T07:37:33;11.82;;;7.15;;
26082;SDS011;13848;49.018;12.078;2023-03-31T07:39:59;16.42;;;8.00;;
26082;SDS011;13848;49.018;12.078;2023-03-31T07:42:25;9.95;;;7.18;;
26082;SDS011;13848;49.018;12.078;2023-03-31T07:44:51;13.50;;;7.18;;
26082;SDS011;13848;49.018;12.078;2023-03-31T07:47:17;14.25;;;7.28;;
26082;SDS011;13848;49.018;12.078;2023-03-31T07:49:45;9.77;;;6.88;;
26082;SDS011;13848;49.018;12.078;2023-03-31T07:52:11;11.07;;;6.63;;
26082;SDS011;13848;49.018;12.078;2023-03-31T07:54:37;13.32;;;7.30;;
26082;SDS011;13848;49.018;12.078;2023-03-31T07:57:03;12.52;;;7.40;;
26082;SDS011;13848;49.018;12.078;2023-03-31T07:59:29;11.02;;;6.75;;
26082;SDS011;13848;49.018;12.078;2023-03-31T08:01:55;10.52;;;6.80;;
26082;SDS011;13848;49.018;12.078;2023-03-31T08:04:21;13.05;;;7.68;;
26082;SDS011;13848;49.018;12.078;2023-03-31T08:06:49;12.25;;;7.22;;
26082;SDS011;13848;49.018;12.078;2023-03-31T08:09:15;12.80;;;7.35;;
26082;SDS011;13848;49.018;12.078;2023-03-31T08:11:41;15.15;;;8.00;;
26082;SDS011;13848;49.018;12.078;2023-03-31T08:14:06;10.45;;;7.13;;
26082;SDS011;13848;49.018;12.078;2023-03-31T08:16:33;13.60;;;8.07;;
26082;SDS011;13848;49.018;12.078;2023-03-31T08:18:58;14.93;;;8.10;;
26082;SDS011;13848;49.018;12.078;2023-03-31T08:21:24;12.57;;;7.18;;
26082;SDS011;13848;49.018;12.078;2023-03-31T08:23:54;11.77;;;7.20;;
26082;SDS011;13848;49.018;12.078;2023-03-31T08:26:20;8.88;;;7.32;;
26082;SDS011;13848;49.018;12.078;2023-03-31T08:28:46;9.75;;;6.80;;
26082;SDS011;13848;49.018;12.078;2023-03-31T08:31:12;12.35;;;6.88;;
26082;SDS011;13848;49.018;12.078;2023-03-31T08:33:38;12.00;;;7.35;;
26082;SDS011;13848;49.018;12.078;2023-03-31T08:36:04;11.85;;;7.50;;
26082;SDS011;13848;49.018;12.078;2023-03-31T08:38:31;9.60;;;7.47;;
26082;SDS011;13848;49.018;12.078;2023-03-31T08:40:59;15.25;;;7.10;;
26082;SDS011;13848;49.018;12.078;2023-03-31T08:43:26;11.82;;;7.82;;
26082;SDS011;13848;49.018;12.078;2023-03-31T08:45:57;13.77;;;7.40;;
26082;SDS011;13848;49.018;12.078;2023-03-31T08:48:26;17.08;;;7.85;;
26082;SDS011;13848;49.018;12.078;2023-03-31T08:50:54;13.15;;;7.88;;
26082;SDS011;13848;49.018;12.078;2023-03-31T08:53:25;13.35;;;8.27;;
26082;SDS011;13848;49.018;12.078;2023-03-31T08:55:54;12.10;;;7.53;;
26082;SDS011;13848;49.018;12.078;2023-03-31T08:58:28;16.33;;;8.98;;
26082;SDS011;13848;49.018;12.078;2023-03-31T09:01:01;11.88;;;7.72;;
26082;SDS011;13848;49.018;12.078;2023-03-31T09:03:33;9.52;;;7.65;;
26082;SDS011;13848;49.018;12.078;2023-03-31T09:06:10;12.45;;;7.35;;
26082;SDS011;13848;49.018;12.078;2023-03-31T09:08:41;10.40;;;7.45;;
26082;SDS011;13848;49.018;12.078;2023-03-31T09:11:12;9.35;;;7.55;;
26082;SDS011;13848;49.018;12.078;2023-03-31T09:14:00;8.40;;;7.28;;
26082;SDS011;13848;49.018;12.078;2023-03-31T09:16:37;14.55;;;7.75;;
26082;SDS011;13848;49.018;12.078;2023-03-31T09:19:10;13.25;;;7.35;;
26082;SDS011;13848;49.018;12.078;2023-03-31T09:21:42;9.52;;;7.35;;
26082;SDS011;13848;49.018;12.078;2023-03-31T09:24:12;8.57;;;6.85;;
26082;SDS011;13848;49.018;12.078;2023-03-31T09:26:41;10.85;;;7.80;;
26082;SDS011;13848;49.018;12.078;2023-03-31T09:29:14;14.10;;;8.35;;
26082;SDS011;13848;49.018;12.078;2023-03-31T09:31:41;9.50;;;6.63;;
26082;SDS011;13848;49.018;12.078;2023-03-31T09:34:09;8.77;;;6.65;;
26082;SDS011;13848;49.018;12.078;2023-03-31T09:36:39;7.95;;;5.63;;
26082;SDS011;13848;49.018;12.078;2023-03-31T09:39:05;8.38;;;6.10;;
26082;SDS011;13848;49.018;12.078;2023-03-31T09:41:31;9.77;;;6.90;;
26082;SDS011;13848;49.018;12.078;2023-03-31T09:43:57;7.80;;;6.28;;
26082;SDS011;13848;49.018;12.078;2023-03-31T09:46:25;7.85;;;5.80;;
26082;SDS011;13848;49.018;12.078;2023-03-31T09:48:57;9.68;;;6.38;;
26082;SDS011;13848;49.018;12.078;2023-03-31T09:51:26;10.38;;;7.18;;
26082;SDS011;13848;49.018;12.078;2023-03-31T09:53:56;15.57;;;9.32;;
26082;SDS011;13848;49.018;12.078;2023-03-31T09:56:33;9.85;;;6.70;;
26082;SDS011;13848;49.018;12.078;2023-03-31T09:59:12;10.88;;;8.73;;
26082;SDS011;13848;49.018;12.078;2023-03-31T10:01:41;12.38;;;8.13;;
26082;SDS011;13848;49.018;12.078;2023-03-31T10:04:08;11.38;;;7.88;;
26082;SDS011;13848;49.018;12.078;2023-03-31T10:06:39;11.65;;;7.40;;
26082;SDS011;13848;49.018;12.078;2023-03-31T10:09:08;10.82;;;7.20;;
26082;SDS011;13848;49.018;12.078;2023-03-31T10:11:35;10.57;;;7.63;;
26082;SDS011;13848;49.018;12.078;2023-03-31T10:14:02;10.93;;;7.80;;
26082;SDS011;13848;49.018;12.078;2023-03-31T10:16:32;11.27;;;7.63;;
26082;SDS011;13848;49.018;12.078;2023-03-31T10:19:11;11.75;;;6.93;;
26082;SDS011;13848;49.018;12.078;2023-03-31T10:21:42;8.15;;;6.35;;
26082;SDS011;13848;49.018;12.078;2023-03-31T10:24:10;9.20;;;6.97;;
26082;SDS011;13848;49.018;12.078;2023-03-31T10:26:36;12.20;;;6.78;;
26082;SDS011;13848;49.018;12.078;2023-03-31T10:29:08;10.82;;;7.30;;
26082;SDS011;13848;49.018;12.078;2023-03-31T10:31:37;9.32;;;6.63;;
26082;SDS011;13848;49.018;12.078;2023-03-31T10:34:04;10.82;;;6.65;;
26082;SDS011;13848;49.018;12.078;2023-03-31T10:36:33;10.50;;;6.55;;
26082;SDS011;13848;49.018;12.078;2023-03-31T10:39:00;7.45;;;4.28;;
26082;SDS011;13848;49.018;12.078;2023-03-31T10:41:30;9.27;;;4.93;;
26082;SDS011;13848;49.018;12.078;2023-03-31T10:43:57;6.22;;;3.75;;
26082;SDS011;13848;49.018;12.078;2023-03-31T10:46:38;5.72;;;3.20;;
26082;SDS011;13848;49.018;12.078;2023-03-31T10:49:13;6.53;;;3.50;;
26082;SDS011;13848;49.018;12.078;2023-03-31T10:51:47;7.35;;;3.13;;
26082;SDS011;13848;49.018;12.078;2023-03-31T10:54:16;10.50;;;3.70;;
26082;SDS011;13848;49.018;12.078;2023-03-31T10:56:43;7.30;;;2.97;;
26082;SDS011;13848;49.018;12.078;2023-03-31T11:02:03;4.30;;;2.95;;
26082;SDS011;13848;49.018;12.078;2023-03-31T11:04:44;6.65;;;2.97;;
26082;SDS011;13848;49.018;12.078;2023-03-31T11:07:29;4.15;;;2.20;;
26082;SDS011;13848;49.018;12.078;2023-03-31T11:10:10;6.03;;;2.30;;
26082;SDS011;13848;49.018;12.078;2023-03-31T11:12:48;6.47;;;2.70;;
26082;SDS011;13848;49.018;12.078;2023-03-31T11:15:18;7.05;;;2.55;;
26082;SDS011;13848;49.018;12.078;2023-03-31T11:18:01;4.93;;;2.42;;
26082;SDS011;13848;49.018;12.078;2023-03-31T11:20:37;4.28;;;2.40;;
26082;SDS011;13848;49.018;12.078;2023-03-31T11:23:14;4.32;;;2.22;;
26082;SDS011;13848;49.018;12.078;2023-03-31T11:25:46;5.47;;;2.30;;
26082;SDS011;13848;49.018;12.078;2023-03-31T11:28:29;6.18;;;1.92;;
26082;SDS011;13848;49.018;12.078;2023-03-31T11:31:10;4.43;;;2.10;;
26082;SDS011;13848;49.018;12.078;2023-03-31T11:34:03;4.72;;;2.13;;
26082;SDS011;13848;49.018;12.078;2023-03-31T11:36:50;9.48;;;2.28;;
26082;SDS011;13848;49.018;12.078;2023-03-31T11:39:38;6.25;;;2.15;;
26082;SDS011;13848;49.018;12.078;2023-03-31T11:42:10;4.57;;;1.88;;
26082;SDS011;13848;49.018;12.078;2023-03-31T11:44:41;3.85;;;1.48;;
26082;SDS011;13848;49.018;12.078;2023-03-31T11:47:12;3.53;;;1.60;;
26082;SDS011;13848;49.018;12.078;2023-03-31T11:49:42;7.85;;;3.00;;
26082;SDS011;13848;49.018;12.078;2023-03-31T11:52:13;9.00;;;4.60;;
26082;SDS011;13848;49.018;12.078;2023-03-31T11:54:45;2.17;;;1.15;;
26082;SDS011;13848;49.018;12.078;2023-03-31T11:57:17;4.05;;;1.63;;
26082;SDS011;13848;49.018;12.078;2023-03-31T11:59:49;5.45;;;1.27;;
26082;SDS011;13848;49.018;12.078;2023-03-31T12:02:22;2.80;;;1.48;;
26082;SDS011;13848;49.018;12.078;2023-03-31T12:04:56;3.20;;;1.40;;
26082;SDS011;13848;49.018;12.078;2023-03-31T12:07:23;4.55;;;1.20;;
26082;SDS011;13848;49.018;12.078;2023-03-31T12:09:57;3.97;;;1.40;;
26082;SDS011;13848;49.018;12.078;2023-03-31T12:12:27;3.08;;;1.33;;
26082;SDS011;13848;49.018;12.078;2023-03-31T12:14:58;2.97;;;1.30;;
26082;SDS011;13848;49.018;12.078;2023-03-31T12:17:31;6.47;;;1.20;;
26082;SDS011;13848;49.018;12.078;2023-03-31T12:19:58;1.67;;;1.02;;
26082;SDS011;13848;49.018;12.078;2023-03-31T12:22:28;1.88;;;1.38;;
26082;SDS011;13848;49.018;12.078;2023-03-31T12:24:59;2.63;;;1.10;;
26082;SDS011;13848;49.018;12.078;2023-03-31T12:27:25;1.52;;;1.02;;
26082;SDS011;13848;49.018;12.078;2023-03-31T12:29:57;2.40;;;1.00;;
26082;SDS011;13848;49.018;12.078;2023-03-31T12:32:27;1.55;;;1.00;;
26082;SDS011;13848;49.018;12.078;2023-03-31T12:34:57;1.42;;;0.93;;
26082;SDS011;13848;49.018;12.078;2023-03-31T12:40:48;1.65;;;0.80;;
26082;SDS011;13848;49.018;12.078;2023-03-31T12:49:28;1.73;;;1.02;;
26082;SDS011;13848;49.018;12.078;2023-03-31T12:52:04;1.92;;;1.00;;
26082;SDS011;13848;49.018;12.078;2023-03-31T12:54:35;4.45;;;1.30;;
26082;SDS011;13848;49.018;12.078;2023-03-31T12:57:21;4.20;;;1.20;;
26082;SDS011;13848;49.018;12.078;2023-03-31T13:00:08;2.75;;;0.90;;
26082;SDS011;13848;49.018;12.078;2023-03-31T13:02:43;2.65;;;1.08;;
26082;SDS011;13848;49.018;12.078;2023-03-31T13:08:10;3.13;;;0.73;;
26082;SDS011;13848;49.018;12.078;2023-03-31T13:10:56;1.13;;;0.80;;
26082;SDS011;13848;49.018;12.078;2023-03-31T13:13:25;3.58;;;1.00;;
26082;SDS011;13848;49.018;12.078;2023-03-31T13:15:51;3.10;;;0.82;;
26082;SDS011;13848;49.018;12.078;2023-03-31T13:18:19;2.03;;;0.80;;
26082;SDS011;13848;49.018;12.078;2023-03-31T13:20:47;1.73;;;0.80;;
26082;SDS011;13848;49.018;12.078;2023-03-31T13:23:23;1.38;;;0.80;;
26082;SDS011;13848;49.018;12.078;2023-03-31T13:25:50;2.65;;;0.80;;
26082;SDS011;13848;49.018;12.078;2023-03-31T13:28:23;1.88;;;0.70;;
26082;SDS011;13848;49.018;12.078;2023-03-31T13:30:53;2.00;;;0.90;;
26082;SDS011;13848;49.018;12.078;2023-03-31T13:39:33;2.78;;;0.80;;
26082;SDS011;13848;49.018;12.078;2023-03-31T13:42:29;3.28;;;0.80;;
26082;SDS011;13848;49.018;12.078;2023-03-31T13:45:25;0.75;;;0.50;;
26082;SDS011;13848;49.018;12.078;2023-03-31T13:48:13;2.55;;;0.70;;
26082;SDS011;13848;49.018;12.078;2023-03-31T13:50:52;1.15;;;0.60;;
26082;SDS011;13848;49.018;12.078;2023-03-31T13:56:47;1.00;;;0.63;;
26082;SDS011;13848;49.018;12.078;2023-03-31T13:59:23;1.23;;;0.65;;
26082;SDS011;13848;49.018;12.078;2023-03-31T14:04:57;1.77;;;0.40;;
26082;SDS011;13848;49.018;12.078;2023-03-31T14:07:36;1.95;;;0.90;;
26082;SDS011;13848;49.018;12.078;2023-03-31T14:10:20;1.67;;;0.80;;
26082;SDS011;13848;49.018;12.078;2023-03-31T14:12:48;1.60;;;0.60;;
26082;SDS011;13848;49.018;12.078;2023-03-31T14:15:16;0.70;;;0.60;;
26082;SDS011;13848;49.018;12.078;2023-03-31T14:17:44;1.25;;;0.40;;
26082;SDS011;13848;49.018;12.078;2023-03-31T14:20:21;1.30;;;0.60;;
26082;SDS011;13848;49.018;12.078;2023-03-31T14:22:55;0.57;;;0.40;;
26082;SDS011;13848;49.018;12.078;2023-03-31T14:25:42;1.65;;;0.60;;
26082;SDS011;13848;49.018;12.078;2023-03-31T14:31:19;1.20;;;0.50;;
26082;SDS011;13848;49.018;12.078;2023-03-31T14:33:57;3.58;;;0.88;;
26082;SDS011;13848;49.018;12.078;2023-03-31T14:36:37;1.85;;;0.80;;
26082;SDS011;13848;49.018;12.078;2023-03-31T14:39:11;1.00;;;0.57;;
26082;SDS011;13848;49.018;12.078;2023-03-31T14:41:44;1.13;;;0.73;;
26082;SDS011;13848;49.018;12.078;2023-03-31T14:44:14;0.82;;;0.50;;
26082;SDS011;13848;49.018;12.078;2023-03-31T14:46:42;2.85;;;0.50;;
26082;SDS011;13848;49.018;12.078;2023-03-31T14:49:18;1.73;;;0.68;;
26082;SDS011;13848;49.018;12.078;2023-03-31T14:51:45;3.13;;;0.50;;
26082;SDS011;13848;49.018;12.078;2023-03-31T14:54:13;1.98;;;0.60;;
26082;SDS011;13848;49.018;12.078;2023-03-31T14:56:40;2.47;;;1.10;;
26082;SDS011;13848;49.018;12.078;2023-03-31T14:59:07;1.45;;;0.77;;
26082;SDS011;13848;49.018;12.078;2023-03-31T15:01:34;1.58;;;0.60;;
26082;SDS011;13848;49.018;12.078;2023-03-31T15:04:03;4.65;;;0.85;;
26082;SDS011;13848;49.018;12.078;2023-03-31T15:06:36;1.95;;;0.65;;
26082;SDS011;13848;49.018;12.078;2023-03-31T15:09:02;5.60;;;0.98;;
26082;SDS011;13848;49.018;12.078;2023-03-31T15:11:28;1.23;;;0.60;;
26082;SDS011;13848;49.018;12.078;2023-03-31T15:13:55;1.98;;;0.80;;
26082;SDS011;13848;49.018;12.078;2023-03-31T15:16:28;1.90;;;0.73;;
26082;SDS011;13848;49.018;12.078;2023-03-31T15:18:56;5.03;;;2.42;;
26082;SDS011;13848;49.018;12.078;2023-03-31T15:21:24;1.58;;;0.70;;
26082;SDS011;13848;49.018;12.078;2023-03-31T15:23:54;3.28;;;0.70;;